ADDS METAR Data INFO
IDs: Format: Raw Decoded Include TAF

Data at: 0735 UTC 18 Oct 2017

KFSW 180715Z AUTO 18007KT 10SM CLR 11/07 A3011 RMK AO2
KFSW 180655Z AUTO 18008KT 10SM CLR 12/07 A3012 RMK AO2
KFSW 180635Z AUTO 19007KT 10SM CLR 12/07 A3012 RMK AO2
KFSW 180615Z AUTO 19006KT 10SM CLR 11/07 A3012 RMK AO2
KFSW 180555Z AUTO 18006KT 10SM CLR 12/07 A3013 RMK AO2
KFSW 180535Z AUTO 18005KT 10SM CLR 12/07 A3013 RMK AO2
KFSW 180515Z AUTO 18005KT 10SM CLR 12/07 A3013 RMK AO2
KFSW 180455Z AUTO 19006KT 10SM CLR 13/07 A3013 RMK AO2
KFSW 180435Z AUTO 18005KT 10SM CLR 12/07 A3014 RMK AO2
KFSW 180415Z AUTO 18005KT 10SM CLR 12/07 A3014 RMK AO2
KFSW 180355Z AUTO 19005KT 10SM CLR 12/07 A3014 RMK AO2
KFSW 180335Z AUTO 18005KT 10SM CLR 13/07 A3014 RMK AO2
KFSW 180315Z AUTO 18006KT 10SM CLR 13/07 A3015 RMK AO2
KFSW 180255Z AUTO 17006KT 10SM CLR 13/07 A3014 RMK AO2
KFSW 180235Z AUTO 17006KT 10SM CLR 14/07 A3014 RMK AO2
KFSW 180215Z AUTO 17005KT 10SM CLR 14/07 A3014 RMK AO2
KFSW 180155Z AUTO 17006KT 10SM CLR 15/07 A3013 RMK AO2
KFSW 180135Z AUTO 17005KT 10SM CLR 15/07 A3013 RMK AO2
KFSW 180115Z AUTO 17005KT 10SM CLR 15/07 A3013 RMK AO2
KFSW 180055Z AUTO 17005KT 10SM CLR 16/07 A3013 RMK AO2
KFSW 180035Z AUTO 17006KT 10SM CLR 16/06 A3013 RMK AO2
KFSW 180015Z AUTO 16004KT 10SM CLR 16/06 A3013 RMK AO2
KFSW 172355Z AUTO 18004KT 10SM CLR 17/06 A3012 RMK AO2
KFSW 172335Z AUTO 00000KT 10SM CLR 17/06 A3012 RMK AO2
KFSW 172315Z AUTO 18005KT 10SM CLR 18/06 A3012 RMK AO2
KFSW 172255Z AUTO 18005KT 10SM CLR 19/06 A3011 RMK AO2
KFSW 172235Z AUTO 18006KT 10SM CLR 21/06 A3011 RMK AO2
KFSW 172215Z AUTO 19007KT 10SM CLR 21/06 A3011 RMK AO2
KFSW 172155Z AUTO 19008KT 10SM CLR 22/06 A3011 RMK AO2
KFSW 172135Z AUTO 19008KT 10SM CLR 22/06 A3012 RMK AO2
KFSW 172115Z AUTO 19007G14KT 10SM CLR 22/06 A3012 RMK AO2
KFSW 172055Z AUTO 19009KT 10SM CLR 22/07 A3012 RMK AO2
KFSW 172035Z AUTO 18008KT 10SM CLR 22/06 A3013 RMK AO2
KFSW 172015Z AUTO 19007KT 10SM CLR 22/06 A3013 RMK AO2
KFSW 171955Z AUTO 19010G15KT 10SM CLR 22/07 A3014 RMK AO2
KFSW 171935Z AUTO 19009KT 10SM CLR 22/07 A3015 RMK AO2
KFSW 171915Z AUTO 20009G14KT 10SM CLR 22/06 A3016 RMK AO2
KFSW 171855Z AUTO 20010KT 10SM CLR 22/06 A3017 RMK AO2
KFSW 171835Z AUTO 20008G15KT 10SM CLR 21/06 A3018 RMK AO2
KFSW 171815Z AUTO 21009G14KT 10SM CLR 21/06 A3019 RMK AO2
KFSW 171755Z AUTO 19008G16KT 10SM CLR 21/06 A3019 RMK AO2
KFSW 171735Z AUTO 21011G15KT 10SM CLR 20/06 A3020 RMK AO2
KFSW 171715Z AUTO 20011G15KT 10SM CLR 19/06 A3021 RMK AO2
KFSW 171655Z AUTO 19011G16KT 10SM CLR 19/06 A3022 RMK AO2
KFSW 171635Z AUTO 20009G17KT 10SM CLR 18/07 A3023 RMK AO2
KFSW 171615Z AUTO 20009KT 10SM CLR 17/07 A3023 RMK AO2
KFSW 171555Z AUTO 20010KT 10SM CLR 16/07 A3023 RMK AO2
KFSW 171535Z AUTO 21012G18KT 10SM CLR 16/07 A3024 RMK AO2
KFSW 171515Z AUTO 20009KT 10SM CLR 14/06 A3024 RMK AO2
KFSW 171455Z AUTO 21009KT 10SM CLR 13/06 A3025 RMK AO2
KFSW 171435Z AUTO 20010KT 10SM CLR 13/06 A3023 RMK AO2
KFSW 171415Z AUTO 21010KT 10SM CLR 13/06 A3024 RMK AO2
KFSW 171355Z AUTO 20011G15KT 10SM CLR 12/06 A3023 RMK AO2
KFSW 171335Z AUTO 20009G14KT 10SM CLR 11/06 A3023 RMK AO2
KFSW 171315Z AUTO 20008KT 10SM CLR 11/06 A3023 RMK AO2
KFSW 171255Z AUTO 19007KT 10SM CLR 11/06 A3023 RMK AO2
KFSW 171235Z AUTO 20007KT 10SM CLR 10/06 A3022 RMK AO2
KFSW 171215Z AUTO 19007KT 10SM CLR 10/06 A3022 RMK AO2
KFSW 171155Z AUTO 20005KT 10SM CLR 09/06 A3023 RMK AO2
KFSW 171135Z AUTO 20006KT 10SM CLR 10/06 A3022 RMK AO2
KFSW 171115Z AUTO 20005KT 10SM CLR 10/06 A3023 RMK AO2
KFSW 171055Z AUTO 20007KT 10SM CLR 09/06 A3023 RMK AO2
KFSW 171035Z AUTO 21006KT 10SM CLR 09/05 A3022 RMK AO2
KFSW 171015Z AUTO 22006KT 10SM CLR 10/05 A3022 RMK AO2
KFSW 170955Z AUTO 21007KT 10SM CLR 11/05 A3021 RMK AO2
KFSW 170935Z AUTO 21008KT 10SM CLR 11/05 A3021 RMK AO2
KFSW 170915Z AUTO 21007KT 10SM CLR 11/05 A3021 RMK AO2
KFSW 170855Z AUTO 22007KT 10SM CLR 11/05 A3021 RMK AO2
KFSW 170835Z AUTO 21008KT 10SM CLR 11/05 A3021 RMK AO2
KFSW 170815Z AUTO 21007KT 10SM CLR 11/05 A3021 RMK AO2
KFSW 170755Z AUTO 22007KT 10SM CLR 11/04 A3022 RMK AO2
KFSW 170735Z AUTO 21007KT 10SM CLR 11/04 A3022 RMK AO2
KFSW 170715Z AUTO 20008KT 10SM CLR 11/04 A3022 RMK AO2
KFSW 170655Z AUTO 21007KT 10SM CLR 11/05 A3022 RMK AO2
KFSW 170635Z AUTO 20007KT 10SM CLR 12/05 A3022 RMK AO2
KFSW 170615Z AUTO 21006KT 10SM CLR 12/05 A3021 RMK AO2
KFSW 170555Z AUTO 20007KT 10SM CLR 12/04 A3021 RMK AO2
KFSW 170535Z AUTO 20008KT 10SM CLR 12/04 A3021 RMK AO2
KFSW 170515Z AUTO 21007KT 10SM CLR 12/04 A3022 RMK AO2
KFSW 170455Z AUTO 21006KT 10SM CLR 12/04 A3022 RMK AO2
KFSW 170435Z AUTO 20006KT 10SM CLR 12/05 A3023 RMK AO2
KFSW 170415Z AUTO 20006KT 10SM CLR 12/06 A3023 RMK AO2
KFSW 170355Z AUTO 19006KT 10SM CLR 13/05 A3023 RMK AO2
KFSW 170335Z AUTO 19006KT 10SM CLR 12/06 A3023 RMK AO2
KFSW 170315Z AUTO 20006KT 10SM CLR 12/06 A3024 RMK AO2
KFSW 170255Z AUTO 20005KT 10SM CLR 12/06 A3024 RMK AO2
KFSW 170235Z AUTO 19006KT 10SM CLR 13/05 A3024 RMK AO2
KFSW 170215Z AUTO 19006KT 10SM CLR 11/06 A3024 RMK AO2
KFSW 170155Z AUTO 19005KT 10SM CLR 11/06 A3024 RMK AO2
KFSW 170135Z AUTO 19004KT 10SM CLR 11/06 A3024 RMK AO2
KFSW 170115Z AUTO 18004KT 10SM CLR 11/06 A3024 RMK AO2
KFSW 170055Z AUTO 19003KT 10SM CLR 12/06 A3024 RMK AO2
KFSW 170035Z AUTO 19003KT 10SM CLR 12/05 A3024 RMK AO2
KFSW 170015Z AUTO 21003KT 10SM CLR 13/04 A3024 RMK AO2
KFSW 162355Z AUTO 20003KT 10SM CLR 13/05 A3024 RMK AO2
KFSW 162335Z AUTO 22003KT 10SM CLR 16/03 A3024 RMK AO2
KFSW 162315Z AUTO 00000KT 10SM CLR 16/03 A3023 RMK AO2
KFSW 162255Z AUTO 22003KT 10SM CLR 18/03 A3024 RMK AO2
KFSW 162235Z AUTO 23004KT 10SM CLR 18/03 A3024 RMK AO2
KFSW 162215Z AUTO 24005KT 10SM CLR 19/02 A3024 RMK AO2
KFSW 162155Z AUTO 23005KT 10SM CLR 19/02 A3024 RMK AO2
KFSW 162135Z AUTO 24006KT 10SM CLR 19/02 A3025 RMK AO2
KFSW 162115Z AUTO 26005KT 10SM CLR 19/02 A3026 RMK AO2
KFSW 162055Z AUTO 27005KT 10SM CLR 19/03 A3026 RMK AO2
KFSW 162035Z AUTO 31004KT 10SM CLR 19/02 A3027 RMK AO2
KFSW 162015Z AUTO 24007KT 10SM CLR 19/03 A3028 RMK AO2
KFSW 161955Z AUTO 26006KT 10SM CLR 19/03 A3028 RMK AO2